createdAt,value
2018-06-03T00:00:09.540Z,98537.91
2018-06-03T00:02:37.002Z,98533.79
2018-06-03T00:05:04.453Z,98536.06
2018-06-03T00:07:31.922Z,98536.88
2018-06-03T00:09:59.372Z,98547.72
2018-06-03T00:12:26.829Z,98537.17
2018-06-03T00:14:54.266Z,98546.26
2018-06-03T00:17:21.713Z,98551.36
2018-06-03T00:19:49.165Z,98546.70
2018-06-03T00:22:35.477Z,98545.97
2018-06-03T00:25:02.933Z,98551.86
2018-06-03T00:27:30.386Z,98555.76
2018-06-03T00:29:57.825Z,98551.20
2018-06-03T00:32:25.279Z,98552.39
2018-06-03T00:34:52.725Z,98550.03
2018-06-03T00:37:20.249Z,98549.70
2018-06-03T00:39:47.765Z,98545.22
2018-06-03T00:42:15.213Z,98540.67
2018-06-03T00:44:42.686Z,98543.84
2018-06-03T00:47:10.120Z,98543.41
2018-06-03T00:49:37.589Z,98546.08
2018-06-03T00:52:05.044Z,98544.33
2018-06-03T00:54:32.511Z,98545.28
2018-06-03T00:57:07.920Z,98537.75
2018-06-03T00:59:35.378Z,98543.89
2018-06-03T01:02:02.855Z,98534.22
2018-06-03T01:04:30.418Z,98536.09
2018-06-03T01:06:57.897Z,98532.27
2018-06-03T01:09:25.410Z,98531.25
2018-06-03T01:11:52.883Z,98525.98
2018-06-03T01:14:20.428Z,98522.39
2018-06-03T01:16:47.886Z,98527.97
2018-06-03T01:19:15.601Z,98528.83
2018-06-03T01:21:43.104Z,98527.34
2018-06-03T01:24:10.653Z,98526.44
2018-06-03T01:26:38.122Z,98529.20
2018-06-03T01:29:05.693Z,98530.75
2018-06-03T01:31:33.157Z,98528.67
2018-06-03T01:34:00.636Z,98531.93
2018-06-03T01:36:28.069Z,98525.28
2018-06-03T01:38:55.550Z,98527.51
2018-06-03T01:41:23.097Z,98529.12
2018-06-03T01:43:50.637Z,98524.19
2018-06-03T01:46:18.087Z,98522.58
2018-06-03T01:48:45.971Z,98524.30
2018-06-03T01:51:13.460Z,98527.43
2018-06-03T01:53:40.933Z,98529.23
2018-06-03T01:56:08.490Z,98524.67
2018-06-03T01:58:35.954Z,98518.72
2018-06-03T02:01:03.432Z,98518.57
2018-06-03T02:03:30.865Z,98519.30
2018-06-03T02:05:58.304Z,98508.78
2018-06-03T02:08:25.840Z,98509.55
2018-06-03T02:10:53.279Z,98511.45
2018-06-03T02:13:20.748Z,98501.76
2018-06-03T02:15:48.212Z,98497.92
2018-06-03T02:18:15.703Z,98495.59
2018-06-03T02:20:43.187Z,98494.18
2018-06-03T02:23:10.648Z,98489.44
2018-06-03T02:25:38.144Z,98481.70
2018-06-03T02:28:05.626Z,98484.94
2018-06-03T02:30:33.091Z,98491.81
2018-06-03T02:33:00.537Z,98491.75
2018-06-03T02:35:28.063Z,98491.02
2018-06-03T02:37:55.622Z,98489.46
2018-06-03T02:40:23.285Z,98491.77
2018-06-03T02:42:50.741Z,98490.30
2018-06-03T02:45:18.189Z,98487.47
2018-06-03T02:47:45.652Z,98491.12
2018-06-03T02:50:13.121Z,98490.45
2018-06-03T02:52:40.599Z,98495.72
2018-06-03T02:55:08.068Z,98486.20
2018-06-03T02:57:35.536Z,98493.23
2018-06-03T03:00:03.118Z,98498.41
2018-06-03T03:02:30.600Z,98502.89
2018-06-03T03:04:58.545Z,98495.66
2018-06-03T03:07:26.140Z,98495.07
2018-06-03T03:09:53.594Z,98488.91
2018-06-03T03:12:21.120Z,98484.41
2018-06-03T03:14:48.585Z,98487.20
2018-06-03T03:17:16.045Z,98483.33
2018-06-03T03:19:43.493Z,98484.16
2018-06-03T03:22:10.952Z,98483.91
2018-06-03T03:24:38.413Z,98482.23
2018-06-03T03:27:05.880Z,98484.02
2018-06-03T03:29:33.369Z,98486.35
2018-06-03T03:32:00.837Z,98495.06
2018-06-03T03:34:28.326Z,98496.52
2018-06-03T03:36:55.786Z,98492.07
2018-06-03T03:39:23.231Z,98494.78
2018-06-03T03:41:50.696Z,98495.05
2018-06-03T03:44:18.168Z,98499.06
2018-06-03T03:46:45.641Z,98506.23
2018-06-03T03:49:13.116Z,98497.80
2018-06-03T03:51:40.581Z,98503.14
2018-06-03T03:54:08.034Z,98498.09
2018-06-03T03:56:35.557Z,98498.37
2018-06-03T03:59:03.012Z,98501.61
2018-06-03T04:01:30.490Z,98503.57
2018-06-03T04:03:57.942Z,98504.78
2018-06-03T04:06:25.402Z,98509.23
2018-06-03T04:08:52.866Z,98512.78
2018-06-03T04:11:20.323Z,98520.03
2018-06-03T04:13:47.773Z,98520.18
2018-06-03T04:16:15.225Z,98515.29
2018-06-03T04:18:42.700Z,98526.69
2018-06-03T04:21:10.141Z,98520.14
2018-06-03T04:23:37.619Z,98520.07
2018-06-03T04:26:05.080Z,98531.19
2018-06-03T04:28:32.553Z,98529.01
2018-06-03T04:31:00.100Z,98529.16
2018-06-03T04:33:27.590Z,98535.22
2018-06-03T04:35:55.064Z,98539.14
2018-06-03T04:38:22.544Z,98538.92
2018-06-03T04:40:50.009Z,98543.22
2018-06-03T04:43:17.583Z,98541.67
2018-06-03T04:45:45.062Z,98536.38
2018-06-03T04:48:12.548Z,98530.87
2018-06-03T04:50:40.052Z,98527.12
2018-06-03T04:53:07.489Z,98533.78
2018-06-03T04:55:34.936Z,98531.80
2018-06-03T04:58:02.421Z,98536.68
2018-06-03T05:00:29.889Z,98532.72
2018-06-03T05:02:57.369Z,98531.77
2018-06-03T05:05:24.848Z,98540.63
2018-06-03T05:07:52.302Z,98537.98
2018-06-03T05:10:19.806Z,98533.27
2018-06-03T05:12:47.258Z,98531.19
2018-06-03T05:15:14.813Z,98529.59
2018-06-03T05:17:42.277Z,98529.63
2018-06-03T05:20:09.724Z,98526.35
2018-06-03T05:22:37.183Z,98529.89
2018-06-03T05:25:04.658Z,98527.99
2018-06-03T05:27:32.142Z,98530.55
2018-06-03T05:29:59.655Z,98532.56
2018-06-03T05:32:27.220Z,98525.81
2018-06-03T05:34:54.753Z,98522.08
2018-06-03T05:37:22.208Z,98528.92
2018-06-03T05:39:49.654Z,98530.98
2018-06-03T05:42:17.122Z,98539.72
2018-06-03T05:44:44.580Z,98536.41
2018-06-03T05:47:12.036Z,98532.05
2018-06-03T05:49:39.489Z,98524.73
2018-06-03T05:52:06.974Z,98530.87
2018-06-03T05:54:35.268Z,98529.39
2018-06-03T05:57:02.743Z,98527.13
2018-06-03T05:59:30.234Z,98531.58
2018-06-03T06:01:57.729Z,98536.85
2018-06-03T06:04:25.317Z,98535.77
2018-06-03T06:06:52.877Z,98542.75
2018-06-03T06:09:20.350Z,98537.42
2018-06-03T06:11:47.843Z,98544.47
2018-06-03T06:14:15.324Z,98545.59
2018-06-03T06:16:43.970Z,98539.14
2018-06-03T06:19:12.666Z,98540.91
2018-06-03T06:21:40.178Z,98535.18
2018-06-03T06:24:07.730Z,98538.06
2018-06-03T06:26:35.189Z,98539.08
2018-06-03T06:29:02.722Z,98541.09
2018-06-03T06:31:30.190Z,98541.48
2018-06-03T06:33:57.742Z,98539.88
2018-06-03T06:36:25.393Z,98542.42
2018-06-03T06:38:57.370Z,98548.27
2018-06-03T06:41:24.843Z,98550.80
2018-06-03T06:43:52.299Z,98554.03
2018-06-03T06:46:19.769Z,98556.66
2018-06-03T06:48:47.250Z,98558.59
2018-06-03T06:51:14.751Z,98561.92
2018-06-03T06:53:42.325Z,98561.09
2018-06-03T06:56:09.787Z,98562.86
2018-06-03T06:58:37.236Z,98559.79
2018-06-03T07:01:04.684Z,98559.27
2018-06-03T07:03:32.242Z,98556.80
2018-06-03T07:05:59.711Z,98553.45
2018-06-03T07:08:27.162Z,98553.24
2018-06-03T07:10:54.612Z,98555.14
2018-06-03T07:13:22.067Z,98551.20
2018-06-03T07:15:49.553Z,98551.56
2018-06-03T07:18:17.047Z,98552.96
2018-06-03T07:20:44.538Z,98554.13
2018-06-03T07:23:12.029Z,98549.74
2018-06-03T07:25:39.482Z,98550.85
2018-06-03T07:28:06.955Z,98553.05
2018-06-03T07:30:34.418Z,98551.98
2018-06-03T07:33:01.974Z,98547.75
2018-06-03T07:35:29.450Z,98551.87
2018-06-03T07:37:56.992Z,98545.50
2018-06-03T07:40:24.454Z,98545.30
2018-06-03T07:42:51.961Z,98544.63
2018-06-03T07:45:19.419Z,98550.73
2018-06-03T07:47:46.872Z,98549.83
2018-06-03T07:50:14.330Z,98553.48
2018-06-03T07:52:41.834Z,98550.69
2018-06-03T07:55:09.418Z,98550.92
2018-06-03T07:57:36.911Z,98547.49
2018-06-03T08:00:04.373Z,98543.19
2018-06-03T08:02:31.817Z,98545.86
2018-06-03T08:04:59.285Z,98546.00
2018-06-03T08:07:26.767Z,98544.73
2018-06-03T08:09:54.352Z,98538.38
2018-06-03T08:12:21.884Z,98537.91
2018-06-03T08:14:49.412Z,98537.31
2018-06-03T08:17:16.896Z,98535.55
2018-06-03T08:19:44.368Z,98529.95
2018-06-03T08:22:12.420Z,98533.87
2018-06-03T08:24:39.978Z,98530.33
2018-06-03T08:27:07.440Z,98526.15
2018-06-03T08:29:34.913Z,98525.86
2018-06-03T08:32:02.385Z,98526.24
2018-06-03T08:34:29.857Z,98532.23
2018-06-03T08:36:57.376Z,98517.80
2018-06-03T08:39:24.839Z,98523.46
2018-06-03T08:41:54.412Z,98525.98
2018-06-03T08:44:21.870Z,98517.26
2018-06-03T08:46:49.363Z,98515.11
2018-06-03T08:49:16.887Z,98518.38
2018-06-03T08:51:44.382Z,98513.43
2018-06-03T08:54:11.844Z,98520.45
2018-06-03T08:56:39.296Z,98512.36
2018-06-03T08:59:06.858Z,98507.30
2018-06-03T09:01:34.301Z,98508.41
2018-06-03T09:04:01.791Z,98502.00
2018-06-03T09:06:29.243Z,98506.36
2018-06-03T09:08:56.758Z,98499.64
2018-06-03T09:11:24.206Z,98495.19
2018-06-03T09:13:51.661Z,98500.40
2018-06-03T09:16:19.143Z,98492.07
2018-06-03T09:18:46.668Z,98491.48
2018-06-03T09:21:14.070Z,98487.42
2018-06-03T09:23:41.578Z,98485.31
2018-06-03T09:26:09.053Z,98488.98
2018-06-03T09:28:36.514Z,98481.20
2018-06-03T09:31:05.947Z,98483.62
2018-06-03T09:33:33.488Z,98478.47
2018-06-03T09:36:01.052Z,98474.89
2018-06-03T09:38:28.538Z,98478.06
2018-06-03T09:40:56.006Z,98471.39
2018-06-03T09:43:23.518Z,98474.16
2018-06-03T09:45:50.956Z,98470.56
2018-06-03T09:48:18.416Z,98473.16
2018-06-03T09:50:45.909Z,98473.86
2018-06-03T09:53:23.633Z,98470.71
2018-06-03T09:55:51.157Z,98469.80
2018-06-03T09:58:18.630Z,98465.23
2018-06-03T10:00:46.108Z,98467.98
2018-06-03T10:03:14.192Z,98465.01
2018-06-03T10:05:41.696Z,98464.71
2018-06-03T10:08:09.158Z,98453.58
2018-06-03T10:10:36.710Z,98451.02
2018-06-03T10:13:04.260Z,98452.42
2018-06-03T10:15:31.721Z,98446.61
2018-06-03T10:17:59.280Z,98446.67
2018-06-03T10:20:26.749Z,98442.82
2018-06-03T10:22:54.178Z,98444.41
2018-06-03T10:25:21.650Z,98448.31
2018-06-03T10:27:49.101Z,98444.52
2018-06-03T10:30:16.559Z,98440.80
2018-06-03T10:32:44.021Z,98438.95
2018-06-03T10:35:11.576Z,98438.35
2018-06-03T10:37:39.036Z,98437.37
2018-06-03T10:40:06.604Z,98441.66
2018-06-03T10:42:34.223Z,98440.08
2018-06-03T10:45:01.733Z,98433.23
2018-06-03T10:47:29.289Z,98432.16
2018-06-03T10:49:56.752Z,98433.52
2018-06-03T10:52:24.221Z,98427.21
2018-06-03T10:54:51.685Z,98428.25
2018-06-03T10:57:19.151Z,98430.67
2018-06-03T10:59:46.658Z,98413.27
2018-06-03T11:02:14.204Z,98419.86
2018-06-03T11:04:41.640Z,98422.19
2018-06-03T11:07:09.096Z,98425.46
2018-06-03T11:09:36.565Z,98421.48
2018-06-03T11:12:04.054Z,98416.84
2018-06-03T11:14:31.491Z,98405.87
2018-06-03T11:16:58.952Z,98414.80
2018-06-03T11:19:26.429Z,98411.09
2018-06-03T11:21:53.906Z,98402.67
2018-06-03T11:24:21.347Z,98411.64
2018-06-03T11:26:48.882Z,98402.80
2018-06-03T11:29:16.446Z,98396.90
2018-06-03T11:31:43.971Z,98402.28
2018-06-03T11:34:11.433Z,98397.45
2018-06-03T11:36:38.899Z,98394.63
2018-06-03T11:39:06.333Z,98391.31
2018-06-03T11:41:33.790Z,98384.52
2018-06-03T11:44:01.260Z,98388.16
2018-06-03T11:46:28.715Z,98384.59
2018-06-03T11:48:56.260Z,98385.16
2018-06-03T11:51:23.732Z,98386.69
2018-06-03T11:53:51.178Z,98381.93
2018-06-03T11:56:18.621Z,98377.31
2018-06-03T11:58:49.859Z,98373.41
2018-06-03T12:01:17.392Z,98368.38
2018-06-03T12:03:44.861Z,98366.73
2018-06-03T12:06:12.408Z,98364.40
2018-06-03T12:08:39.988Z,98369.09
2018-06-03T12:11:07.691Z,98359.98
2018-06-03T12:13:35.149Z,98357.09
2018-06-03T12:16:02.608Z,98364.09
2018-06-03T12:18:30.041Z,98344.25
2018-06-03T12:20:57.523Z,98337.36
2018-06-03T12:23:25.011Z,98339.66
2018-06-03T12:25:52.568Z,98340.52
2018-06-03T12:28:20.068Z,98332.31
2018-06-03T12:30:47.560Z,98324.17
2018-06-03T12:33:15.051Z,98328.48
2018-06-03T12:35:42.503Z,98326.67
2018-06-03T12:38:09.953Z,98323.84
2018-06-03T12:40:37.428Z,98320.50
2018-06-03T12:43:04.927Z,98318.83
2018-06-03T12:45:32.383Z,98321.61
2018-06-03T12:47:59.834Z,98315.84
2018-06-03T12:50:27.310Z,98313.80
2018-06-03T12:52:54.775Z,98307.53
2018-06-03T12:55:22.397Z,98306.31
2018-06-03T12:57:49.846Z,98294.42
2018-06-03T13:00:17.353Z,98296.20
2018-06-03T13:02:44.849Z,98296.69
2018-06-03T13:05:12.472Z,98298.34
2018-06-03T13:07:39.969Z,98295.11
2018-06-03T13:10:07.413Z,98292.74
2018-06-03T13:13:06.201Z,98290.17
2018-06-03T13:15:34.486Z,98292.05
2018-06-03T13:18:02.834Z,98291.63
2018-06-03T13:20:31.206Z,98288.70
2018-06-03T13:22:59.558Z,98289.89
2018-06-03T13:25:27.879Z,98277.10
2018-06-03T13:27:56.267Z,98284.11
2018-06-03T13:30:24.619Z,98274.97
2018-06-03T13:32:52.934Z,98273.23
2018-06-03T13:35:21.258Z,98264.08
2018-06-03T13:37:49.512Z,98264.98
2018-06-03T13:40:17.803Z,98265.52
2018-06-03T13:42:46.169Z,98257.17
2018-06-03T13:45:14.610Z,98252.81
2018-06-03T13:47:42.974Z,98249.49
2018-06-03T13:50:11.224Z,98241.78
2018-06-03T13:52:39.649Z,98246.20
2018-06-03T13:55:07.966Z,98235.23
2018-06-03T13:57:36.343Z,98232.60
2018-06-03T14:00:05.073Z,98230.05
2018-06-03T14:02:33.410Z,98228.02
2018-06-03T14:05:01.748Z,98228.70
2018-06-03T14:07:30.131Z,98224.63
2018-06-03T14:09:58.450Z,98218.63
2018-06-03T14:12:26.815Z,98215.50
2018-06-03T14:14:55.347Z,98215.77
2018-06-03T14:17:23.805Z,98213.76
2018-06-03T14:19:52.085Z,98211.09
2018-06-03T14:22:20.439Z,98202.81
2018-06-03T14:24:48.899Z,98198.58
2018-06-03T14:27:17.313Z,98202.86
2018-06-03T14:29:45.707Z,98194.92
2018-06-03T14:32:14.030Z,98199.09
2018-06-03T14:34:42.386Z,98195.25
2018-06-03T14:37:10.672Z,98201.06
2018-06-03T14:39:39.006Z,98198.71
2018-06-03T14:42:07.246Z,98202.01
2018-06-03T14:44:35.554Z,98197.61
2018-06-03T14:47:03.908Z,98199.38
2018-06-03T14:49:32.214Z,98190.70
2018-06-03T14:52:00.498Z,98190.95
2018-06-03T14:54:28.907Z,98186.62
2018-06-03T14:56:57.439Z,98189.74
2018-06-03T14:59:25.713Z,98175.83
2018-06-03T15:01:54.026Z,98182.91
2018-06-03T15:04:22.366Z,98176.21
2018-06-03T15:06:50.627Z,98182.91
2018-06-03T15:09:19.007Z,98172.70
2018-06-03T15:11:47.268Z,98168.59
2018-06-03T15:14:15.587Z,98171.05
2018-06-03T15:16:43.893Z,98160.30
2018-06-03T15:19:12.298Z,98158.20
2018-06-03T15:21:40.629Z,98156.13
2018-06-03T15:24:08.937Z,98153.26
2018-06-03T15:26:37.319Z,98152.59
2018-06-03T15:29:05.682Z,98147.45
2018-06-03T15:31:33.938Z,98149.18
2018-06-03T15:34:02.294Z,98141.59
2018-06-03T15:36:30.668Z,98140.34
2018-06-03T15:38:59.014Z,98140.04
2018-06-03T15:41:27.326Z,98137.86
2018-06-03T15:43:55.711Z,98135.61
2018-06-03T15:46:24.009Z,98128.22
2018-06-03T15:48:52.353Z,98133.31
2018-06-03T15:51:20.670Z,98133.66
2018-06-03T15:53:49.015Z,98125.77
2018-06-03T15:56:17.327Z,98119.02
2018-06-03T15:58:45.640Z,98116.13
2018-06-03T16:01:14.020Z,98114.70
2018-06-03T16:03:42.277Z,98113.55
2018-06-03T16:06:10.631Z,98106.76
2018-06-03T16:08:38.961Z,98097.59
2018-06-03T16:11:07.366Z,98096.92
2018-06-03T16:13:35.764Z,98099.81
2018-06-03T16:16:04.672Z,98097.27
2018-06-03T16:18:33.307Z,98098.83
2018-06-03T16:21:02.758Z,98096.48
2018-06-03T16:23:31.193Z,98097.06
2018-06-03T16:25:59.956Z,98096.63
2018-06-03T16:28:28.289Z,98095.31
2018-06-03T16:30:56.617Z,98096.77
2018-06-03T16:33:25.020Z,98092.30
2018-06-03T16:35:53.379Z,98081.88
2018-06-03T16:38:21.717Z,98085.08
2018-06-03T16:40:56.369Z,98078.50
2018-06-03T16:43:24.952Z,98084.54
2018-06-03T16:45:53.342Z,98081.16
2018-06-03T16:48:21.642Z,98084.17
2018-06-03T16:50:49.992Z,98076.80
2018-06-03T16:53:18.357Z,98073.83
2018-06-03T16:55:46.631Z,98071.95
2018-06-03T16:58:15.030Z,98073.88
2018-06-03T17:00:43.721Z,98071.30
2018-06-03T17:03:12.062Z,98073.48
2018-06-03T17:05:40.566Z,98059.80
2018-06-03T17:08:08.886Z,98068.97
2018-06-03T17:10:37.407Z,98062.88
2018-06-03T17:13:06.089Z,98066.50
2018-06-03T17:15:34.501Z,98066.75
2018-06-03T17:18:02.816Z,98065.94
2018-06-03T17:20:31.320Z,98070.94
2018-06-03T17:22:59.595Z,98061.23
2018-06-03T17:25:27.906Z,98065.98
2018-06-03T17:27:56.218Z,98061.48
2018-06-03T17:30:24.536Z,98057.09
2018-06-03T17:32:53.014Z,98049.97
2018-06-03T17:35:21.321Z,98054.49
2018-06-03T17:37:49.634Z,98059.30
2018-06-03T17:40:18.111Z,98051.69
2018-06-03T17:42:46.542Z,98048.63
2018-06-03T17:45:15.067Z,98052.84
2018-06-03T17:47:45.742Z,98043.88
2018-06-03T17:50:14.131Z,98039.51
2018-06-03T17:52:42.549Z,98042.76
2018-06-03T17:55:10.968Z,98040.90
2018-06-03T17:57:39.297Z,98045.20
2018-06-03T18:00:07.578Z,98034.37
2018-06-03T18:02:36.423Z,98042.55
2018-06-03T18:05:04.846Z,98051.92
2018-06-03T18:07:33.225Z,98054.57
2018-06-03T18:10:01.592Z,98053.69
2018-06-03T18:12:29.983Z,98048.03
2018-06-03T18:14:58.561Z,98048.20
2018-06-03T18:17:26.852Z,98046.58
2018-06-03T18:19:55.186Z,98044.44
2018-06-03T18:22:23.649Z,98041.70
2018-06-03T18:24:52.081Z,98033.69
2018-06-03T18:27:20.436Z,98043.04
2018-06-03T18:29:48.737Z,98035.14
2018-06-03T18:32:17.141Z,98033.08
2018-06-03T18:34:45.444Z,98031.62
2018-06-03T18:37:13.803Z,98032.28
2018-06-03T18:39:42.760Z,98029.11
2018-06-03T18:42:11.104Z,98029.23
2018-06-03T18:44:39.350Z,98027.84
2018-06-03T18:47:07.698Z,98020.83
2018-06-03T18:49:36.116Z,98026.78
2018-06-03T18:52:04.396Z,98026.77
2018-06-03T18:54:32.723Z,98027.39
2018-06-03T18:57:01.040Z,98025.89
2018-06-03T18:59:29.462Z,98017.90
2018-06-03T19:01:57.796Z,98014.38
2018-06-03T19:04:26.274Z,98014.38
2018-06-03T19:06:54.748Z,98013.34
2018-06-03T19:09:23.042Z,98017.22
2018-06-03T19:11:51.598Z,98011.93
2018-06-03T19:14:20.077Z,98011.86
2018-06-03T19:16:48.572Z,98010.19
2018-06-03T19:19:17.119Z,98022.00
2018-06-03T19:21:45.544Z,98015.34
2018-06-03T19:27:17.386Z,98009.17
2018-06-03T19:29:45.765Z,98011.87
2018-06-03T19:32:14.142Z,98017.91
2018-06-03T19:34:42.592Z,98016.91
2018-06-03T19:37:11.159Z,98015.50
2018-06-03T19:39:39.486Z,98015.83
2018-06-03T19:42:07.961Z,98016.99
2018-06-03T19:44:36.444Z,98021.69
2018-06-03T19:47:04.950Z,98020.14
2018-06-03T19:49:33.273Z,98026.31
2018-06-03T19:52:01.765Z,98022.42
2018-06-03T19:54:30.167Z,98021.61
2018-06-03T19:56:58.766Z,98031.62
2018-06-03T19:59:27.961Z,98029.20
2018-06-03T20:01:56.303Z,98035.73
2018-06-03T20:04:24.803Z,98036.53
2018-06-03T20:06:56.743Z,98038.55
2018-06-03T20:09:25.840Z,98042.20
2018-06-03T20:11:54.264Z,98042.37
2018-06-03T20:14:22.618Z,98042.59
2018-06-03T20:16:51.120Z,98040.74
2018-06-03T20:19:19.544Z,98040.00
2018-06-03T20:21:47.848Z,98042.33
2018-06-03T20:24:16.451Z,98042.66
2018-06-03T20:26:44.774Z,98045.95
2018-06-03T20:29:13.216Z,98046.47
2018-06-03T20:31:42.351Z,98045.33
2018-06-03T20:34:11.042Z,98046.94
2018-06-03T20:36:39.488Z,98040.20
2018-06-03T20:39:08.174Z,98043.58
2018-06-03T20:41:36.474Z,98045.57
2018-06-03T20:44:04.955Z,98043.64
2018-06-03T20:46:33.259Z,98048.34
2018-06-03T20:49:01.546Z,98048.83
2018-06-03T20:51:29.860Z,98052.16
2018-06-03T20:53:58.253Z,98051.75
2018-06-03T20:56:26.668Z,98049.67
2018-06-03T20:58:55.148Z,98051.41
2018-06-03T21:01:23.497Z,98056.41
2018-06-03T21:03:51.981Z,98053.49
2018-06-03T21:06:20.525Z,98051.69
2018-06-03T21:08:48.932Z,98053.66
2018-06-03T21:11:17.440Z,98053.61
2018-06-03T21:13:46.468Z,98050.65
2018-06-03T21:16:14.898Z,98052.08
2018-06-03T21:18:43.405Z,98043.89
2018-06-03T21:21:11.845Z,98042.51
2018-06-03T21:23:40.640Z,98044.77
2018-06-03T21:26:13.637Z,98040.72
2018-06-03T21:28:44.353Z,98041.38
2018-06-03T21:31:14.337Z,98043.43
2018-06-03T21:33:42.898Z,98045.25
2018-06-03T21:36:11.368Z,98039.58
2018-06-03T21:38:39.700Z,98055.03
2018-06-03T21:41:08.034Z,98053.59
2018-06-03T21:43:36.483Z,98050.34
2018-06-03T21:46:04.896Z,98048.36
2018-06-03T21:48:33.367Z,98051.25
2018-06-03T21:51:02.029Z,98047.23
2018-06-03T21:53:30.502Z,98048.57
2018-06-03T21:55:58.857Z,98048.13
2018-06-03T21:58:27.232Z,98047.38
2018-06-03T22:00:55.739Z,98047.64
2018-06-03T22:03:24.168Z,98047.13
2018-06-03T22:05:52.665Z,98047.45
2018-06-03T22:08:21.143Z,98046.09
2018-06-03T22:10:49.617Z,98050.75
2018-06-03T22:13:18.109Z,98050.36
2018-06-03T22:15:46.623Z,98053.57
2018-06-03T22:18:15.097Z,98052.10
2018-06-03T22:20:43.707Z,98048.78
2018-06-03T22:23:12.181Z,98048.86
2018-06-03T22:25:41.044Z,98044.78
2018-06-03T22:28:09.407Z,98042.69
2018-06-03T22:33:42.026Z,98044.34
2018-06-03T22:36:10.347Z,98039.31
2018-06-03T22:38:38.799Z,98038.83
2018-06-03T22:41:07.229Z,98039.75
2018-06-03T22:43:35.655Z,98042.13
2018-06-03T22:46:05.116Z,98042.57
2018-06-03T22:48:33.530Z,98045.70
2018-06-03T22:51:01.962Z,98035.83
2018-06-03T22:53:30.438Z,98045.55
2018-06-03T22:56:00.267Z,98043.88
2018-06-03T22:58:30.035Z,98045.79
2018-06-03T23:00:58.582Z,98041.22
2018-06-03T23:03:27.217Z,98038.64
2018-06-03T23:05:56.038Z,98043.67
2018-06-03T23:08:27.733Z,98044.97
2018-06-03T23:10:57.219Z,98040.90
2018-06-03T23:13:25.748Z,98035.05
2018-06-03T23:15:54.779Z,98030.14
2018-06-03T23:18:29.579Z,98021.63
2018-06-03T23:20:58.055Z,98022.59
2018-06-03T23:23:26.503Z,98024.91
2018-06-03T23:25:54.978Z,98019.06
2018-06-03T23:28:23.328Z,98017.36
2018-06-03T23:30:51.830Z,98016.98
2018-06-03T23:33:20.423Z,98013.62
2018-06-03T23:35:48.752Z,98017.27
2018-06-03T23:38:17.252Z,98012.23
2018-06-03T23:40:45.657Z,98009.09
2018-06-03T23:43:14.015Z,98009.64
2018-06-03T23:45:42.404Z,98003.97
2018-06-03T23:48:10.952Z,98004.70
2018-06-03T23:50:39.332Z,97997.98
2018-06-03T23:53:07.784Z,97990.48
2018-06-03T23:55:36.105Z,97991.06
2018-06-03T23:58:04.483Z,97980.74
